createdAt,value
2022-11-25T00:00:23.910Z,9.66
2022-11-25T00:04:26.618Z,9.78
2022-11-25T00:08:26.692Z,9.89
2022-11-25T00:12:26.766Z,9.95
2022-11-25T00:16:29.206Z,9.80
2022-11-25T00:20:31.959Z,10.01
2022-11-25T00:24:32.353Z,10.04
2022-11-25T00:28:32.559Z,9.76
2022-11-25T00:32:32.726Z,9.98
2022-11-25T00:36:39.162Z,10.11
2022-11-25T00:40:40.060Z,10.30
2022-11-25T00:44:38.910Z,10.22
2022-11-25T00:48:39.541Z,10.15
2022-11-25T00:52:42.217Z,10.01
2022-11-25T00:56:42.471Z,10.08
2022-11-25T01:00:42.703Z,10.16
2022-11-25T01:04:43.149Z,10.24
2022-11-25T01:08:45.869Z,10.13
2022-11-25T01:12:45.943Z,10.37
2022-11-25T01:16:46.078Z,10.37
2022-11-25T01:20:46.282Z,10.24
2022-11-25T01:24:48.954Z,10.26
2022-11-25T01:28:50.260Z,10.20
2022-11-25T01:32:50.313Z,10.18
2022-11-25T01:36:50.461Z,10.31
2022-11-25T01:40:53.127Z,10.31
2022-11-25T01:45:35.616Z,10.16
2022-11-25T01:49:43.818Z,9.91
2022-11-25T01:53:44.342Z,9.95
2022-11-25T01:57:59.093Z,10.14
2022-11-25T02:02:01.891Z,10.08
2022-11-25T02:06:12.814Z,10.12
2022-11-25T02:10:19.383Z,10.09
2022-11-25T02:14:26.068Z,10.12
2022-11-25T02:18:27.749Z,10.08
2022-11-25T02:22:47.436Z,9.81
2022-11-25T02:26:50.796Z,10.16
2022-11-25T02:30:51.743Z,9.90
2022-11-25T02:34:53.159Z,10.03
2022-11-25T02:38:58.608Z,9.92
2022-11-25T02:43:04.825Z,10.01
2022-11-25T02:47:04.920Z,9.92
2022-11-25T02:51:05.867Z,9.72
2022-11-25T02:55:06.089Z,9.62
2022-11-25T02:59:10.264Z,9.67
2022-11-25T03:03:11.653Z,9.65
2022-11-25T03:07:11.791Z,9.65
2022-11-25T03:11:11.859Z,9.70
2022-11-25T03:15:15.176Z,9.50
2022-11-25T03:19:15.317Z,9.56
2022-11-25T03:23:15.822Z,9.51
2022-11-25T03:27:16.035Z,9.60
2022-11-25T03:31:18.952Z,9.38
2022-11-25T03:35:20.455Z,9.56
2022-11-25T03:39:20.966Z,9.64
2022-11-25T03:43:21.466Z,9.50
2022-11-25T03:47:25.322Z,9.51
2022-11-25T03:51:25.807Z,9.40
2022-11-25T03:55:26.888Z,9.55
2022-11-25T03:59:28.609Z,9.59
2022-11-25T04:03:31.746Z,9.19
2022-11-25T04:07:32.565Z,8.99
2022-11-25T04:11:44.983Z,9.34
2022-11-25T04:15:49.038Z,9.08
2022-11-25T04:19:53.183Z,8.99
2022-11-25T04:23:53.563Z,9.28
2022-11-25T04:27:54.949Z,9.22
2022-11-25T04:32:01.960Z,9.53
2022-11-25T04:36:04.695Z,9.54
2022-11-25T04:40:04.971Z,9.43
2022-11-25T04:44:07.102Z,9.17
2022-11-25T04:48:10.019Z,9.46
2022-11-25T04:52:14.359Z,9.55
2022-11-25T04:56:21.845Z,9.59
2022-11-25T05:00:25.644Z,9.36
2022-11-25T05:04:26.790Z,9.28
2022-11-25T05:08:30.639Z,9.12
2022-11-25T05:12:33.280Z,9.15
2022-11-25T05:16:36.628Z,9.44
2022-11-25T05:20:37.168Z,9.37
2022-11-25T05:24:39.950Z,9.35
2022-11-25T05:28:40.502Z,9.13
2022-11-25T05:32:40.673Z,9.33
2022-11-25T05:36:44.745Z,9.59
2022-11-25T05:40:48.129Z,9.56
2022-11-25T05:44:50.674Z,9.47
2022-11-25T05:48:51.007Z,9.69
2022-11-25T05:52:51.329Z,9.57
2022-11-25T05:56:54.135Z,9.39
2022-11-25T06:01:24.182Z,9.40
2022-11-25T06:05:24.796Z,9.46
2022-11-25T06:09:24.985Z,9.40
2022-11-25T06:13:28.337Z,9.25
2022-11-25T06:17:30.594Z,8.95
2022-11-25T06:21:45.532Z,9.07
2022-11-25T06:25:47.611Z,9.28
2022-11-25T06:29:50.360Z,9.52
2022-11-25T06:33:52.612Z,9.54
2022-11-25T06:37:53.544Z,9.52
2022-11-25T06:41:53.616Z,9.54
2022-11-25T06:45:56.408Z,9.41
2022-11-25T06:49:56.615Z,9.34
2022-11-25T06:53:56.834Z,9.44
2022-11-25T06:58:13.946Z,9.30
2022-11-25T07:02:20.263Z,9.43
2022-11-25T07:06:22.092Z,9.48
2022-11-25T07:10:23.806Z,9.68
2022-11-25T07:14:24.091Z,9.36
2022-11-25T07:18:26.775Z,9.68
2022-11-25T07:22:27.180Z,9.42
2022-11-25T07:26:31.047Z,9.67
2022-11-25T07:34:56.060Z,9.36
2022-11-25T07:39:18.758Z,9.39
2022-11-25T07:43:19.264Z,9.43
2022-11-25T07:47:19.575Z,9.62
2022-11-25T07:51:25.484Z,9.20
2022-11-25T07:55:25.759Z,9.58
2022-11-25T07:59:32.730Z,9.17
2022-11-25T08:04:02.202Z,8.94
2022-11-25T08:08:05.407Z,9.10
2022-11-25T08:12:48.184Z,7.89
2022-11-25T08:16:48.899Z,7.49
2022-11-25T08:20:52.161Z,7.85
2022-11-25T08:25:01.239Z,9.05
2022-11-25T08:29:05.096Z,8.34
2022-11-25T08:33:10.665Z,8.30
2022-11-25T08:37:28.726Z,8.39
2022-11-25T08:41:37.493Z,9.86
2022-11-25T08:45:38.452Z,8.58
2022-11-25T08:49:45.625Z,9.78
2022-11-25T08:53:58.862Z,9.88
2022-11-25T08:58:15.865Z,8.81
2022-11-25T09:02:27.820Z,10.35
2022-11-25T09:06:34.674Z,10.29
2022-11-25T09:10:37.473Z,10.00
2022-11-25T09:14:41.478Z,10.17
2022-11-25T09:18:55.789Z,9.56
2022-11-25T09:22:57.944Z,9.62
2022-11-25T09:27:22.455Z,9.34
2022-11-25T09:31:32.209Z,9.67
2022-11-25T09:35:50.744Z,9.31
2022-11-25T09:40:09.922Z,10.73
2022-11-25T09:44:50.416Z,9.16
2022-11-25T09:49:21.319Z,10.90
2022-11-25T09:53:52.074Z,10.87
2022-11-25T09:58:17.490Z,10.70
2022-11-25T10:02:39.313Z,11.48
2022-11-25T10:06:57.758Z,12.38
2022-11-25T10:11:18.869Z,11.85
2022-11-25T10:15:26.144Z,12.66
2022-11-25T10:19:46.433Z,12.85
2022-11-25T10:23:49.234Z,12.53
2022-11-25T10:27:56.980Z,12.62
2022-11-25T10:32:14.477Z,12.59
2022-11-25T10:36:21.102Z,13.16
2022-11-25T10:40:25.084Z,13.72
2022-11-25T10:44:33.900Z,14.14
2022-11-25T10:48:58.742Z,14.23
2022-11-25T10:53:05.397Z,14.14
2022-11-25T10:57:26.216Z,13.85
2022-11-25T11:01:50.258Z,12.78
2022-11-25T11:06:09.861Z,12.23
2022-11-25T11:10:26.180Z,13.77
2022-11-25T11:14:30.097Z,14.13
2022-11-25T11:18:42.231Z,14.77
2022-11-25T11:22:56.101Z,15.18
2022-11-25T11:27:25.270Z,15.13
2022-11-25T11:31:34.637Z,14.09
2022-11-25T11:36:07.011Z,14.43
2022-11-25T11:40:30.346Z,14.14
2022-11-25T11:44:50.194Z,14.22
2022-11-25T11:49:05.763Z,14.36
2022-11-25T11:53:19.970Z,14.04
2022-11-25T11:57:36.827Z,13.85
2022-11-25T12:02:19.276Z,12.96
2022-11-25T12:06:43.653Z,13.40
2022-11-25T12:11:24.406Z,13.29
2022-11-25T12:16:22.461Z,13.71
2022-11-25T12:21:41.826Z,13.82
2022-11-25T12:26:33.409Z,13.16
2022-11-25T12:31:38.538Z,13.31
2022-11-25T12:36:29.352Z,12.59
2022-11-25T12:41:26.175Z,12.38
2022-11-25T12:45:39.716Z,13.13
2022-11-25T12:49:46.591Z,13.58
2022-11-25T12:53:54.734Z,14.26
2022-11-25T12:58:43.873Z,14.42
2022-11-25T13:03:43.701Z,14.70
2022-11-25T13:07:59.339Z,13.97
2022-11-25T13:12:21.079Z,13.32
2022-11-25T13:16:28.317Z,13.87
2022-11-25T13:20:52.993Z,13.90
2022-11-25T13:24:53.740Z,13.56
2022-11-25T13:28:54.539Z,13.74
2022-11-25T13:32:58.034Z,13.71
2022-11-25T13:37:01.198Z,13.65
2022-11-25T13:41:04.148Z,13.23
2022-11-25T13:45:05.982Z,13.23
2022-11-25T13:49:28.426Z,13.11
2022-11-25T13:53:37.566Z,12.94
2022-11-25T13:57:43.453Z,12.86
2022-11-25T14:01:56.181Z,12.62
2022-11-25T14:06:12.460Z,12.97
2022-11-25T14:10:46.186Z,13.05
2022-11-25T14:15:27.872Z,12.84
2022-11-25T14:20:15.961Z,12.73
2022-11-25T14:24:33.339Z,13.00
2022-11-25T14:28:42.725Z,13.00
2022-11-25T14:32:53.309Z,12.84
2022-11-25T14:36:59.523Z,13.05
2022-11-25T14:41:10.466Z,13.18
2022-11-25T14:45:26.390Z,13.27
2022-11-25T14:53:51.176Z,13.45
2022-11-25T14:57:55.598Z,13.29
2022-11-25T15:01:58.051Z,13.36
2022-11-25T15:06:00.603Z,13.06
2022-11-25T15:10:00.784Z,13.05
2022-11-25T15:14:07.979Z,13.02
2022-11-25T15:18:09.569Z,13.00
2022-11-25T15:22:23.026Z,12.95
2022-11-25T15:26:26.976Z,12.88
2022-11-25T15:30:32.001Z,12.80
2022-11-25T15:34:33.214Z,12.57
2022-11-25T15:38:43.886Z,12.59
2022-11-25T15:42:45.758Z,12.69
2022-11-25T15:46:57.898Z,12.60
2022-11-25T15:51:05.642Z,12.81
2022-11-25T15:55:10.781Z,12.79
2022-11-25T15:59:48.406Z,12.75
2022-11-25T16:03:53.129Z,12.70
2022-11-25T16:08:28.265Z,12.83
2022-11-25T16:12:28.476Z,12.84
2022-11-25T16:16:32.445Z,12.55
2022-11-25T16:20:35.263Z,12.99
2022-11-25T16:24:44.312Z,12.98
2022-11-25T16:28:54.319Z,12.81
2022-11-25T16:32:54.473Z,12.83
2022-11-25T16:36:57.499Z,12.85
2022-11-25T16:40:57.734Z,12.93
2022-11-25T16:44:57.883Z,12.88
2022-11-25T16:48:57.967Z,12.78
2022-11-25T16:53:01.566Z,12.74
2022-11-25T16:57:02.104Z,12.70
2022-11-25T17:01:02.498Z,12.64
2022-11-25T17:05:17.918Z,12.65
2022-11-25T17:09:21.138Z,12.80
2022-11-25T17:13:25.911Z,12.58
2022-11-25T17:17:28.984Z,12.71
2022-11-25T17:21:31.127Z,12.60
2022-11-25T17:25:37.379Z,12.79
2022-11-25T17:29:42.544Z,12.88
2022-11-25T17:33:46.113Z,12.91
2022-11-25T17:37:46.329Z,12.80
2022-11-25T17:41:51.867Z,12.91
2022-11-25T17:45:52.071Z,12.94
2022-11-25T17:49:53.218Z,12.89
2022-11-25T17:53:54.219Z,12.99
2022-11-25T17:57:57.860Z,13.09
2022-11-25T18:01:59.411Z,13.04
2022-11-25T18:05:59.706Z,13.13
2022-11-25T18:09:59.859Z,13.08
2022-11-25T18:14:02.624Z,12.99
2022-11-25T18:18:07.400Z,13.12
2022-11-25T18:22:16.559Z,13.16
2022-11-25T18:26:16.658Z,13.28
2022-11-25T18:30:26.498Z,13.34
2022-11-25T18:34:27.897Z,13.48
2022-11-25T18:38:31.231Z,13.57
2022-11-25T18:42:34.676Z,13.60
2022-11-25T18:46:41.385Z,13.54
2022-11-25T18:50:41.699Z,13.53
2022-11-25T18:54:41.907Z,13.54
2022-11-25T18:58:42.991Z,13.46
2022-11-25T19:02:46.121Z,13.38
2022-11-25T19:06:46.756Z,13.42
2022-11-25T19:10:49.750Z,13.25
2022-11-25T19:14:52.712Z,13.25
2022-11-25T19:18:55.899Z,13.26
2022-11-25T19:23:00.601Z,13.65
2022-11-25T19:27:01.501Z,13.69
2022-11-25T19:31:05.838Z,13.25
2022-11-25T19:35:11.235Z,13.66
2022-11-25T19:39:20.614Z,13.62
2022-11-25T19:43:22.647Z,13.68
2022-11-25T19:47:26.893Z,13.62
2022-11-25T19:51:34.638Z,13.71
2022-11-25T19:55:35.689Z,13.61
2022-11-25T19:59:35.900Z,13.76
2022-11-25T20:03:37.804Z,13.75
2022-11-25T20:07:41.708Z,13.99
2022-11-25T20:11:42.168Z,13.99
2022-11-25T20:15:43.642Z,13.70
2022-11-25T20:19:44.673Z,13.57
2022-11-25T20:23:50.133Z,13.76
2022-11-25T20:27:50.480Z,13.74
2022-11-25T20:31:50.979Z,13.67
2022-11-25T20:35:55.812Z,13.14
2022-11-25T20:40:02.772Z,13.21
2022-11-25T20:44:03.549Z,13.64
2022-11-25T20:48:07.154Z,13.49
2022-11-25T20:52:08.996Z,13.55
2022-11-25T20:56:16.648Z,13.57
2022-11-25T21:00:23.966Z,13.63
2022-11-25T21:04:24.701Z,13.96
2022-11-25T21:08:28.659Z,13.69
2022-11-25T21:12:34.384Z,13.88
2022-11-25T21:16:34.882Z,14.00
2022-11-25T21:20:36.297Z,13.62
2022-11-25T21:24:43.852Z,13.49
2022-11-25T21:28:52.062Z,13.25
2022-11-25T21:32:56.565Z,13.18
2022-11-25T21:36:59.787Z,13.42
2022-11-25T21:41:02.918Z,13.77
2022-11-25T21:45:06.838Z,13.32
2022-11-25T21:49:14.265Z,12.94
2022-11-25T21:53:14.697Z,13.31
2022-11-25T21:57:20.075Z,13.09
2022-11-25T22:01:26.894Z,13.43
2022-11-25T22:05:30.845Z,13.46
2022-11-25T22:09:31.842Z,13.50
2022-11-25T22:13:41.326Z,13.04
2022-11-25T22:17:45.382Z,13.01
2022-11-25T22:21:56.660Z,13.02
2022-11-25T22:25:58.920Z,13.19
2022-11-25T22:29:59.419Z,13.40
2022-11-25T22:34:02.198Z,13.47
2022-11-25T22:38:03.142Z,13.54
2022-11-25T22:42:08.994Z,13.50
2022-11-25T22:46:09.824Z,13.52
2022-11-25T22:50:24.919Z,13.44
2022-11-25T22:54:26.350Z,13.47
2022-11-25T22:58:28.023Z,13.56
2022-11-25T23:02:36.604Z,13.65
2022-11-25T23:06:39.362Z,13.63
2022-11-25T23:10:39.456Z,13.43
2022-11-25T23:14:39.742Z,13.79
2022-11-25T23:18:43.436Z,13.69
2022-11-25T23:22:46.132Z,13.67
2022-11-25T23:26:46.688Z,13.73
2022-11-25T23:30:52.903Z,13.58
2022-11-25T23:34:53.654Z,13.70
2022-11-25T23:38:59.854Z,13.45
2022-11-25T23:43:00.230Z,13.22
2022-11-25T23:47:05.775Z,13.32
2022-11-25T23:51:05.962Z,13.66
2022-11-25T23:55:10.469Z,13.61
2022-11-25T23:59:16.372Z,13.53
